Time;durP1;ratioP1;P1;durP2;ratioP2;P2;SDS_P1;SDS_P2;PMS_P1;PMS_P2;Temp;Humidity;BMP_temperature;BMP_pressure;BME280_temperature;BME280_humidity;BME280_pressure;Samples;Min_cycle;Max_cycle;Signal;HPM_P1;HPM_P2
2021/08/11 00:01:32;;;;;;;7.87;6.63;;;23.10;99.90;;;;;;6186787;23;20261;-66
2021/08/11 00:03:57;;;;;;;6.70;6.03;;;23.10;99.90;;;;;;6160619;23;20162;-66
2021/08/11 00:06:23;;;;;;;8.43;6.47;;;23.00;99.90;;;;;;6186801;23;20186;-66
2021/08/11 00:08:48;;;;;;;6.03;5.43;;;23.00;99.90;;;;;;6187291;23;20209;-68
2021/08/11 00:11:14;;;;;;;6.83;5.77;;;23.00;99.90;;;;;;6160311;23;20202;-67
2021/08/11 00:13:40;;;;;;;7.00;5.80;;;22.90;99.90;;;;;;6160473;23;20163;-66
2021/08/11 00:16:06;;;;;;;6.40;5.43;;;22.90;99.90;;;;;;6160333;23;20213;-67
2021/08/11 00:18:31;;;;;;;6.10;5.47;;;22.80;99.90;;;;;;6186949;23;20208;-67
2021/08/11 00:20:57;;;;;;;8.03;6.00;;;22.80;99.90;;;;;;6186790;23;20375;-66
2021/08/11 00:23:25;;;;;;;5.57;4.70;;;22.80;99.90;;;;;;6186921;23;20464;-67
2021/08/11 00:25:53;;;;;;;9.37;5.63;;;22.70;99.90;;;;;;6186690;23;20481;-66
2021/08/11 00:28:23;;;;;;;6.43;5.60;;;22.70;99.90;;;;;;6186896;23;20396;-66
2021/08/11 00:30:49;;;;;;;7.47;6.40;;;22.70;99.90;;;;;;6186462;23;20434;-65
2021/08/11 00:33:15;;;;;;;8.13;5.60;;;22.60;99.90;;;;;;6186802;23;20436;-65
2021/08/11 00:35:40;;;;;;;8.13;5.50;;;22.60;99.90;;;;;;6160231;23;20749;-65
2021/08/11 00:38:06;;;;;;;7.70;5.70;;;22.60;99.90;;;;;;6159995;23;20203;-66
2021/08/11 00:40:32;;;;;;;6.30;5.50;;;22.60;99.90;;;;;;6186541;23;20154;-65
2021/08/11 00:42:58;;;;;;;7.87;5.07;;;22.60;99.90;;;;;;6186621;23;20185;-65
2021/08/11 00:45:25;;;;;;;9.00;6.10;;;22.60;99.90;;;;;;6186497;23;20856;-66
2021/08/11 00:47:51;;;;;;;5.60;5.10;;;22.50;99.90;;;;;;6186564;23;20458;-66
2021/08/11 00:50:19;;;;;;;8.80;5.50;;;22.50;99.90;;;;;;6160290;23;20471;-66
2021/08/11 00:52:46;;;;;;;12.73;5.67;;;22.50;99.90;;;;;;6186062;23;20483;-67
2021/08/11 00:55:14;;;;;;;6.70;5.10;;;22.50;99.90;;;;;;6186308;23;20770;-65
2021/08/11 00:57:41;;;;;;;7.37;5.70;;;22.50;99.90;;;;;;6186462;23;20495;-66
2021/08/11 01:00:07;;;;;;;7.20;4.90;;;22.40;99.90;;;;;;6186269;23;20376;-65
2021/08/11 01:02:35;;;;;;;7.00;5.50;;;22.40;99.90;;;;;;6186201;23;20399;-65
2021/08/11 01:05:01;;;;;;;6.20;5.60;;;22.30;99.90;;;;;;6184749;23;20387;-65
2021/08/11 01:07:28;;;;;;;6.00;5.40;;;22.30;99.90;;;;;;6186125;23;20499;-66
2021/08/11 01:09:54;;;;;;;5.93;4.17;;;22.30;99.90;;;;;;6186151;23;20442;-66
2021/08/11 01:12:23;;;;;;;8.90;5.63;;;22.30;99.90;;;;;;6186180;23;20918;-66
2021/08/11 01:14:50;;;;;;;6.40;5.73;;;22.30;99.90;;;;;;6186265;23;20376;-65
2021/08/11 01:17:15;;;;;;;6.60;4.93;;;22.30;99.90;;;;;;6186180;23;20881;-65
2021/08/11 01:19:41;;;;;;;9.17;5.13;;;22.30;99.90;;;;;;6186811;23;20463;-66
2021/08/11 01:22:16;;;;;;;5.50;4.50;;;22.20;99.90;;;;;;6186147;23;20197;-65
2021/08/11 01:25:05;;;;;;;6.13;5.33;;;22.20;99.90;;;;;;6160236;23;20474;-65
2021/08/11 01:28:01;;;;;;;6.33;5.07;;;22.10;99.90;;;;;;6186307;23;20866;-65
2021/08/11 01:30:44;;;;;;;6.57;4.97;;;22.10;99.90;;;;;;6186293;23;20431;-67
2021/08/11 01:33:38;;;;;;;5.83;4.70;;;22.00;99.90;;;;;;6186339;23;20515;-66
2021/08/11 01:36:15;;;;;;;8.03;5.33;;;21.90;99.90;;;;;;6159859;23;20857;-65
2021/08/11 01:38:49;;;;;;;7.37;5.37;;;21.90;99.90;;;;;;6156682;23;20459;-65
2021/08/11 01:41:16;;;;;;;6.20;5.60;;;21.90;99.90;;;;;;6130268;23;20392;-66
2021/08/11 01:43:45;;;;;;;8.13;5.50;;;21.90;99.90;;;;;;6156880;23;20735;-65
2021/08/11 01:46:14;;;;;;;6.17;5.50;;;21.90;99.90;;;;;;6156209;23;20683;-67
2021/08/11 01:48:42;;;;;;;6.80;5.17;;;21.90;99.90;;;;;;6156696;23;20401;-66
2021/08/11 01:51:08;;;;;;;6.87;5.20;;;21.90;99.90;;;;;;6156220;23;20433;-67
2021/08/11 01:53:34;;;;;;;6.10;5.00;;;21.90;99.90;;;;;;6156583;23;20412;-65
2021/08/11 01:56:04;;;;;;;6.70;5.03;;;21.90;99.90;;;;;;6130129;23;20424;-65
2021/08/11 01:58:31;;;;;;;6.10;4.70;;;21.90;99.90;;;;;;6130173;23;20516;-65
2021/08/11 02:01:00;;;;;;;7.07;5.73;;;21.90;99.90;;;;;;6130127;23;20412;-65
2021/08/11 02:03:26;;;;;;;6.47;4.93;;;21.90;99.90;;;;;;6157455;23;20409;-65
2021/08/11 02:05:56;;;;;;;4.67;4.27;;;21.90;99.90;;;;;;6158269;23;20362;-66
2021/08/11 02:08:23;;;;;;;8.37;5.80;;;21.90;99.90;;;;;;6158452;23;20413;-67
2021/08/11 02:10:52;;;;;;;6.93;4.47;;;21.90;99.90;;;;;;6158056;23;20475;-65
2021/08/11 02:13:17;;;;;;;5.13;4.50;;;21.90;99.90;;;;;;6157960;23;20412;-65
2021/08/11 02:15:50;;;;;;;8.57;5.20;;;21.90;99.90;;;;;;6158117;23;20404;-66
2021/08/11 02:18:16;;;;;;;6.53;5.23;;;21.90;99.90;;;;;;6158441;23;20182;-66
2021/08/11 02:20:43;;;;;;;6.60;5.33;;;21.80;99.90;;;;;;6158087;23;20370;-67
2021/08/11 02:23:09;;;;;;;6.00;5.33;;;21.70;99.90;;;;;;6131831;23;20421;-65
2021/08/11 02:25:54;;;;;;;7.17;5.80;;;21.70;99.90;;;;;;6158058;23;20370;-66
2021/08/11 02:28:34;;;;;;;6.00;5.07;;;21.70;99.90;;;;;;6132072;23;20480;-67
2021/08/11 02:31:12;;;;;;;5.03;4.50;;;21.60;99.90;;;;;;6131679;23;20471;-65
2021/08/11 02:33:52;;;;;;;7.00;5.80;;;21.60;99.90;;;;;;6158413;23;20754;-66
2021/08/11 02:36:26;;;;;;;7.00;5.60;;;21.60;99.90;;;;;;6159440;23;20396;-67
2021/08/11 02:38:54;;;;;;;5.17;4.67;;;21.60;99.90;;;;;;6187695;23;20758;-65
2021/08/11 02:41:27;;;;;;;8.93;4.93;;;21.50;99.90;;;;;;6187617;23;20710;-65
2021/08/11 02:44:01;;;;;;;7.60;5.60;;;21.50;99.90;;;;;;6188144;23;20430;-66
2021/08/11 02:46:28;;;;;;;7.00;5.07;;;21.40;99.90;;;;;;6187909;23;20406;-65
2021/08/11 02:49:01;;;;;;;7.00;5.33;;;21.40;99.90;;;;;;6188010;23;20385;-65
2021/08/11 02:51:29;;;;;;;8.40;5.03;;;21.40;99.90;;;;;;6187577;23;20427;-65
2021/08/11 02:53:58;;;;;;;8.00;5.80;;;21.40;99.90;;;;;;6187927;23;20466;-65
2021/08/11 02:56:23;;;;;;;6.47;5.80;;;21.40;99.90;;;;;;6185948;23;20482;-65
2021/08/11 02:58:49;;;;;;;8.03;5.90;;;21.40;99.90;;;;;;6187862;23;20392;-64
2021/08/11 03:01:15;;;;;;;7.57;5.70;;;21.50;99.90;;;;;;6187342;23;20234;-65
2021/08/11 03:03:41;;;;;;;4.97;4.47;;;21.50;99.90;;;;;;6187834;23;20193;-66
2021/08/11 03:06:07;;;;;;;6.53;5.13;;;21.50;99.90;;;;;;6187358;23;20751;-66
2021/08/11 03:08:33;;;;;;;10.37;5.13;;;21.60;99.90;;;;;;6187650;23;20185;-66
2021/08/11 03:11:00;;;;;;;13.27;9.63;;;21.60;99.90;;;;;;6187671;23;20232;-66
2021/08/11 03:13:26;;;;;;;5.23;4.70;;;21.60;99.90;;;;;;6187649;23;20901;-65
2021/08/11 03:15:52;;;;;;;8.57;5.50;;;21.60;99.90;;;;;;6187034;23;20364;-67
2021/08/11 03:18:18;;;;;;;8.40;5.87;;;21.60;99.90;;;;;;6160890;23;20193;-65
2021/08/11 03:20:44;;;;;;;10.30;4.90;;;21.60;99.90;;;;;;6187417;23;20201;-66
2021/08/11 03:23:13;;;;;;;6.13;5.40;;;21.60;99.90;;;;;;6187384;23;20420;-65
2021/08/11 03:25:39;;;;;;;5.40;4.60;;;21.60;99.90;;;;;;6187209;23;20177;-65
2021/08/11 03:28:05;;;;;;;9.00;5.70;;;21.60;99.90;;;;;;6160740;23;20518;-65
2021/08/11 03:30:31;;;;;;;5.30;4.50;;;21.50;99.90;;;;;;6187217;23;20502;-65
2021/08/11 03:32:56;;;;;;;5.17;4.43;;;21.50;99.90;;;;;;6186898;23;20181;-66
2021/08/11 03:35:22;;;;;;;7.30;5.50;;;21.60;99.90;;;;;;6187101;23;20576;-65
2021/08/11 03:37:48;;;;;;;6.53;5.40;;;21.60;99.90;;;;;;6186904;23;20286;-65
2021/08/11 03:40:14;;;;;;;8.90;5.37;;;21.50;99.90;;;;;;6187049;23;20162;-65
2021/08/11 03:42:40;;;;;;;6.50;5.20;;;21.50;99.90;;;;;;6186862;23;20964;-65
2021/08/11 03:45:06;;;;;;;6.90;4.90;;;21.50;99.90;;;;;;6187038;23;20605;-65
2021/08/11 03:47:32;;;;;;;10.63;4.83;;;21.50;99.90;;;;;;6186996;23;20407;-66
2021/08/11 03:49:58;;;;;;;5.33;4.63;;;21.50;99.90;;;;;;6160474;23;20432;-67
2021/08/11 03:52:23;;;;;;;5.60;4.97;;;21.50;99.90;;;;;;6186791;23;20166;-66
2021/08/11 03:54:49;;;;;;;6.17;4.70;;;21.50;99.90;;;;;;6160612;23;20631;-66
2021/08/11 03:57:14;;;;;;;6.60;5.07;;;21.60;99.90;;;;;;6186846;23;20200;-65
2021/08/11 03:59:40;;;;;;;5.27;4.77;;;21.60;99.90;;;;;;6187050;23;20159;-65
2021/08/11 04:02:06;;;;;;;7.93;5.30;;;21.60;99.90;;;;;;6186506;23;20196;-65
2021/08/11 04:04:33;;;;;;;7.80;5.40;;;21.60;99.90;;;;;;6187391;23;20154;-66
2021/08/11 04:06:59;;;;;;;6.90;5.50;;;21.60;99.90;;;;;;6185073;23;20177;-66
2021/08/11 04:09:24;;;;;;;10.87;4.63;;;21.60;99.90;;;;;;6187287;23;20385;-65
2021/08/11 04:11:50;;;;;;;9.03;5.60;;;21.60;99.90;;;;;;6186313;23;20182;-67
2021/08/11 04:14:16;;;;;;;5.50;5.00;;;21.60;99.90;;;;;;6186444;23;20601;-66
2021/08/11 04:16:41;;;;;;;6.53;4.70;;;21.60;99.90;;;;;;6159795;23;20179;-65
2021/08/11 04:19:07;;;;;;;7.57;5.47;;;21.60;99.90;;;;;;6187197;23;20589;-64
2021/08/11 04:21:33;;;;;;;7.50;5.17;;;21.60;99.90;;;;;;6186689;23;20427;-67
2021/08/11 04:23:58;;;;;;;6.23;4.77;;;21.70;99.90;;;;;;6187086;23;20159;-66
2021/08/11 04:26:24;;;;;;;5.53;4.73;;;21.70;99.90;;;;;;6186169;23;20186;-66
2021/08/11 04:28:50;;;;;;;5.40;4.60;;;21.70;99.90;;;;;;6160510;23;20666;-66
2021/08/11 04:31:15;;;;;;;6.90;5.03;;;21.70;99.90;;;;;;6186354;23;20688;-65
2021/08/11 04:33:41;;;;;;;8.07;5.30;;;21.70;99.90;;;;;;6187049;23;20510;-65
2021/08/11 04:36:06;;;;;;;6.17;5.30;;;21.80;99.90;;;;;;6186502;23;20154;-66
2021/08/11 04:38:32;;;;;;;7.10;5.13;;;21.80;99.90;;;;;;6160013;23;20210;-65
2021/08/11 04:40:58;;;;;;;6.10;5.20;;;21.80;99.90;;;;;;6186489;23;20151;-66
2021/08/11 04:43:23;;;;;;;5.80;5.20;;;21.80;99.90;;;;;;6186674;23;20233;-65
2021/08/11 04:45:49;;;;;;;8.03;5.93;;;21.80;99.90;;;;;;6160127;23;20158;-67
2021/08/11 04:48:14;;;;;;;5.50;5.00;;;21.90;99.90;;;;;;6186118;23;20186;-65
2021/08/11 04:50:41;;;;;;;6.17;5.57;;;21.90;99.90;;;;;;6159939;23;20274;-67
2021/08/11 04:53:07;;;;;;;6.47;4.67;;;21.90;99.90;;;;;;6186481;23;20232;-66
2021/08/11 04:55:33;;;;;;;5.07;4.57;;;21.90;99.90;;;;;;6160071;23;20384;-67
2021/08/11 04:57:58;;;;;;;6.67;4.90;;;22.00;99.90;;;;;;6186102;23;20178;-65
2021/08/11 05:00:24;;;;;;;5.17;4.70;;;22.00;99.90;;;;;;6159898;23;20158;-66
2021/08/11 05:02:50;;;;;;;6.37;5.40;;;22.10;99.90;;;;;;6186396;23;20170;-65
2021/08/11 05:05:15;;;;;;;8.60;5.83;;;22.10;99.90;;;;;;6185694;23;20229;-66
2021/08/11 05:07:41;;;;;;;6.50;5.63;;;22.20;99.90;;;;;;6185837;23;20227;-65
2021/08/11 05:10:07;;;;;;;5.57;5.07;;;22.20;99.90;;;;;;6186004;23;20190;-67
2021/08/11 05:12:33;;;;;;;5.77;4.87;;;22.30;99.90;;;;;;6155996;23;20174;-66
2021/08/11 05:15:00;;;;;;;6.13;5.23;;;22.30;99.90;;;;;;6183240;23;20380;-65
2021/08/11 05:17:25;;;;;;;9.27;5.83;;;22.40;99.90;;;;;;6183935;23;20495;-66
2021/08/11 05:19:52;;;;;;;9.73;4.60;;;22.50;99.90;;;;;;6185749;23;20732;-66
2021/08/11 05:22:22;;;;;;;5.93;5.33;;;22.50;99.90;;;;;;6158603;23;20258;-66
2021/08/11 05:24:48;;;;;;;6.50;5.23;;;22.60;99.90;;;;;;6158370;23;20392;-65
2021/08/11 05:27:17;;;;;;;5.90;4.90;;;22.70;99.90;;;;;;6184999;23;20721;-68
2021/08/11 05:29:44;;;;;;;6.00;5.40;;;22.70;99.90;;;;;;6186070;23;20921;-65
2021/08/11 05:32:12;;;;;;;6.17;5.00;;;22.80;99.90;;;;;;6184869;23;20483;-65
2021/08/11 05:34:38;;;;;;;6.80;5.80;;;22.90;99.90;;;;;;6159291;23;20403;-66
2021/08/11 05:37:03;;;;;;;7.23;6.53;;;23.00;99.90;;;;;;6185408;23;20893;-65
2021/08/11 05:39:29;;;;;;;6.57;5.23;;;23.00;99.90;;;;;;6160820;23;20403;-67
2021/08/11 05:41:55;;;;;;;5.50;5.00;;;23.10;99.90;;;;;;6160519;23;20181;-67
2021/08/11 05:44:21;;;;;;;7.60;6.13;;;23.20;99.90;;;;;;6158878;23;20175;-65
2021/08/11 05:46:46;;;;;;;9.63;5.93;;;23.30;99.90;;;;;;6187587;23;20481;-67
2021/08/11 05:49:12;;;;;;;7.50;6.10;;;23.30;99.90;;;;;;6187269;23;20162;-66
2021/08/11 05:51:38;;;;;;;6.87;6.07;;;23.40;99.90;;;;;;6187916;23;20572;-64
2021/08/11 05:54:05;;;;;;;7.50;6.30;;;23.50;99.90;;;;;;6187894;23;20205;-65
2021/08/11 05:56:31;;;;;;;6.60;5.97;;;23.50;99.90;;;;;;6186003;23;20385;-65
2021/08/11 05:58:56;;;;;;;9.90;6.40;;;23.60;99.90;;;;;;6186536;23;20730;-66
2021/08/11 06:01:25;;;;;;;8.90;6.00;;;23.60;99.90;;;;;;6160829;23;20384;-66
2021/08/11 06:03:55;;;;;;;7.30;6.13;;;23.70;99.90;;;;;;6185617;23;20157;-68
2021/08/11 06:06:21;;;;;;;7.13;6.30;;;23.80;99.90;;;;;;6185142;23;20369;-66
2021/08/11 06:08:47;;;;;;;8.63;6.70;;;23.90;99.90;;;;;;6160523;23;20427;-66
2021/08/11 06:11:13;;;;;;;6.40;5.67;;;23.90;99.90;;;;;;6186571;23;20432;-65
2021/08/11 06:13:39;;;;;;;9.20;5.77;;;24.00;99.90;;;;;;6186854;23;20612;-66
2021/08/11 06:16:05;;;;;;;8.73;5.40;;;24.00;99.90;;;;;;6187346;23;20159;-67
2021/08/11 06:18:30;;;;;;;5.67;4.73;;;24.10;99.90;;;;;;6186948;23;20406;-66
2021/08/11 06:20:56;;;;;;;5.60;5.07;;;24.20;99.90;;;;;;6185672;23;20167;-66
2021/08/11 06:23:21;;;;;;;7.07;5.33;;;24.30;99.90;;;;;;6187083;23;20235;-65
2021/08/11 06:25:50;;;;;;;8.80;5.40;;;24.30;99.90;;;;;;6186673;23;20182;-66
2021/08/11 06:28:16;;;;;;;6.80;5.43;;;24.40;99.90;;;;;;6160865;23;20935;-65
2021/08/11 06:30:41;;;;;;;6.27;5.50;;;24.50;99.90;;;;;;6185200;23;20724;-66
2021/08/11 06:33:07;;;;;;;6.70;6.10;;;24.60;99.90;;;;;;6158891;23;20271;-67
2021/08/11 06:35:33;;;;;;;11.93;6.10;;;24.60;99.90;;;;;;6186588;23;20153;-65
2021/08/11 06:37:59;;;;;;;6.13;4.70;;;24.70;99.90;;;;;;6186026;23;20204;-66
2021/08/11 06:40:27;;;;;;;7.27;5.90;;;24.80;99.90;;;;;;6186838;23;20376;-66
2021/08/11 06:42:53;;;;;;;6.13;5.30;;;24.90;99.90;;;;;;6156952;23;20186;-67
2021/08/11 06:45:18;;;;;;;6.07;5.47;;;25.00;99.90;;;;;;6183443;23;20378;-65
2021/08/11 06:47:44;;;;;;;5.80;5.10;;;25.00;99.90;;;;;;6184521;23;20549;-67
2021/08/11 06:50:11;;;;;;;5.93;5.40;;;25.10;99.90;;;;;;6181373;23;20196;-66
2021/08/11 06:52:37;;;;;;;6.40;5.50;;;25.20;99.90;;;;;;6180562;23;20626;-68
2021/08/11 06:55:05;;;;;;;6.53;5.20;;;25.30;99.90;;;;;;6182014;23;20389;-66
2021/08/11 06:57:31;;;;;;;4.87;4.37;;;25.30;99.90;;;;;;6183965;23;20177;-66
2021/08/11 06:59:57;;;;;;;8.27;5.17;;;25.40;99.90;;;;;;6183976;23;20482;-67
2021/08/11 07:02:23;;;;;;;7.47;4.27;;;25.50;99.90;;;;;;6154377;23;20181;-65
2021/08/11 07:04:48;;;;;;;7.07;4.97;;;25.60;99.90;;;;;;6182510;23;20161;-67
2021/08/11 07:07:14;;;;;;;4.93;4.50;;;25.70;99.90;;;;;;6160221;23;20446;-67
2021/08/11 07:09:39;;;;;;;5.30;4.80;;;25.80;99.90;;;;;;6187079;23;20485;-66
2021/08/11 07:12:05;;;;;;;4.70;4.30;;;25.90;99.90;;;;;;6158953;23;20182;-66
2021/08/11 07:14:31;;;;;;;5.50;4.00;;;26.00;99.90;;;;;;6185643;23;20242;-65
2021/08/11 07:16:57;;;;;;;5.50;4.17;;;26.00;99.90;;;;;;6183181;23;20437;-65
2021/08/11 07:19:23;;;;;;;5.13;4.40;;;26.10;99.90;;;;;;6183917;23;20454;-66
2021/08/11 07:21:48;;;;;;;4.17;3.40;;;26.20;99.90;;;;;;6182703;23;20206;-66
2021/08/11 07:24:14;;;;;;;4.07;3.60;;;26.20;99.90;;;;;;6184424;23;20154;-65
2021/08/11 07:26:40;;;;;;;4.50;4.10;;;26.30;99.90;;;;;;6184387;23;20178;-68
2021/08/11 07:29:05;;;;;;;5.10;4.60;;;26.40;99.90;;;;;;6182520;23;20186;-68
2021/08/11 07:31:31;;;;;;;5.27;4.47;;;26.50;99.90;;;;;;6183263;23;20277;-68
2021/08/11 07:33:56;;;;;;;7.80;4.43;;;26.60;99.90;;;;;;6184658;23;20163;-65
2021/08/11 07:36:22;;;;;;;5.57;4.30;;;26.70;99.90;;;;;;6186093;23;20618;-68
2021/08/11 07:38:48;;;;;;;5.20;4.63;;;26.80;99.90;;;;;;6158194;23;20477;-65
2021/08/11 07:41:13;;;;;;;5.40;4.03;;;26.80;99.90;;;;;;6185530;23;20151;-67
2021/08/11 07:43:39;;;;;;;6.40;4.53;;;26.90;99.90;;;;;;6186494;23;20155;-66
2021/08/11 07:46:05;;;;;;;6.23;4.00;;;27.00;99.90;;;;;;6180697;23;20531;-66
2021/08/11 07:48:31;;;;;;;4.23;3.77;;;27.10;99.90;;;;;;6179853;23;20443;-65
2021/08/11 07:50:56;;;;;;;4.33;3.63;;;27.20;99.90;;;;;;6185326;23;20535;-67
2021/08/11 07:53:22;;;;;;;4.40;4.00;;;27.30;99.90;;;;;;6184906;23;20186;-68
2021/08/11 07:55:47;;;;;;;3.90;3.50;;;27.40;99.90;;;;;;6158896;23;20170;-67
2021/08/11 07:58:13;;;;;;;4.30;3.90;;;27.40;99.90;;;;;;6183399;23;20516;-65
2021/08/11 08:00:39;;;;;;;4.37;3.87;;;27.50;99.90;;;;;;6185642;23;20195;-67
2021/08/11 08:03:04;;;;;;;3.80;3.40;;;27.60;99.90;;;;;;6156274;23;20190;-67
2021/08/11 08:05:30;;;;;;;3.33;2.90;;;27.70;99.90;;;;;;6159202;23;20245;-66
2021/08/11 08:07:55;;;;;;;4.00;3.60;;;27.80;99.90;;;;;;6156459;23;20217;-66
2021/08/11 08:10:21;;;;;;;5.03;3.47;;;27.90;99.90;;;;;;6186363;23;20193;-66
2021/08/11 08:12:48;;;;;;;3.47;3.17;;;28.00;99.90;;;;;;6183981;23;20535;-66
2021/08/11 08:15:15;;;;;;;5.60;3.97;;;28.10;99.90;;;;;;6182302;23;20174;-66
2021/08/11 08:17:42;;;;;;;4.50;4.10;;;28.20;99.90;;;;;;6184094;23;20476;-67
2021/08/11 08:20:09;;;;;;;3.70;3.40;;;28.20;99.90;;;;;;6185877;23;20382;-67
2021/08/11 08:22:34;;;;;;;3.67;3.37;;;28.40;99.90;;;;;;6183966;23;20385;-67
2021/08/11 08:25:00;;;;;;;4.80;3.50;;;28.50;99.90;;;;;;6184264;23;20452;-65
2021/08/11 08:27:27;;;;;;;4.30;3.50;;;28.60;99.90;;;;;;6184505;23;20168;-65
2021/08/11 08:29:53;;;;;;;6.30;4.07;;;28.70;99.90;;;;;;6158383;23;20203;-68
2021/08/11 08:32:19;;;;;;;10.40;3.70;;;28.80;99.90;;;;;;6182877;23;20405;-67
2021/08/11 08:34:45;;;;;;;4.37;3.47;;;28.80;99.90;;;;;;6159380;23;20390;-67
2021/08/11 08:37:10;;;;;;;4.13;3.70;;;28.90;99.90;;;;;;6157314;23;20297;-65
2021/08/11 08:39:36;;;;;;;4.90;3.30;;;28.90;99.90;;;;;;6184690;23;20172;-66
2021/08/11 08:42:03;;;;;;;3.97;3.47;;;28.90;99.90;;;;;;6157652;23;20685;-65
2021/08/11 08:44:29;;;;;;;4.10;3.80;;;28.90;99.90;;;;;;6185315;23;20163;-65
2021/08/11 08:46:56;;;;;;;4.57;3.67;;;29.00;99.90;;;;;;6183718;23;20395;-65
2021/08/11 08:49:23;;;;;;;4.40;3.50;;;29.10;99.90;;;;;;6183902;23;20443;-69
2021/08/11 08:51:52;;;;;;;4.40;4.00;;;29.30;99.90;;;;;;6182215;23;20777;-66
2021/08/11 08:54:23;;;;;;;4.00;3.60;;;29.40;99.90;;;;;;6181946;23;20393;-66
2021/08/11 08:56:49;;;;;;;3.73;3.30;;;29.40;99.90;;;;;;6183941;23;20777;-67
2021/08/11 08:59:14;;;;;;;3.93;3.50;;;29.50;99.90;;;;;;6181961;23;20395;-67
2021/08/11 09:01:40;;;;;;;5.43;3.63;;;29.50;99.90;;;;;;6183352;23;20234;-67
2021/08/11 09:04:05;;;;;;;3.50;3.20;;;29.60;99.90;;;;;;6184647;23;20484;-67
2021/08/11 09:06:36;;;;;;;3.93;3.43;;;29.60;99.90;;;;;;6184525;23;20178;-65
2021/08/11 09:09:04;;;;;;;4.93;3.60;;;29.70;99.90;;;;;;6158459;23;20175;-65
2021/08/11 09:11:31;;;;;;;3.70;3.17;;;29.80;99.90;;;;;;6184805;23;20435;-66
2021/08/11 09:14:16;;;;;;;4.23;3.70;;;29.90;99.90;;;;;;6185133;23;20705;-67
2021/08/11 09:16:46;;;;;;;3.43;3.07;;;30.10;99.90;;;;;;6184850;23;20393;-66
2021/08/11 09:19:12;;;;;;;3.30;3.00;;;30.30;99.90;;;;;;6182510;23;20394;-67
2021/08/11 09:21:55;;;;;;;3.60;3.30;;;30.50;99.90;;;;;;6149747;23;20740;-67
2021/08/11 09:24:21;;;;;;;4.33;3.40;;;30.50;99.90;;;;;;6180265;23;20168;-66
2021/08/11 09:26:46;;;;;;;3.40;3.10;;;30.40;99.90;;;;;;6179630;23;21056;-65
2021/08/11 09:29:12;;;;;;;5.00;4.07;;;30.50;99.90;;;;;;6181106;23;20157;-67
2021/08/11 09:31:40;;;;;;;3.40;3.10;;;30.50;99.90;;;;;;6182136;23;20203;-65
2021/08/11 09:34:08;;;;;;;3.50;3.20;;;30.40;99.90;;;;;;6180282;23;20177;-66
2021/08/11 09:36:42;;;;;;;3.43;3.03;;;30.50;99.90;;;;;;6181559;23;20757;-67
2021/08/11 09:39:07;;;;;;;4.07;3.67;;;30.60;99.20;;;;;;6180867;23;20628;-65
2021/08/11 09:41:33;;;;;;;4.17;3.63;;;30.70;98.70;;;;;;6181340;23;20894;-65
2021/08/11 09:44:10;;;;;;;3.37;3.07;;;30.80;98.70;;;;;;6179730;23;20717;-65
2021/08/11 09:46:38;;;;;;;3.90;3.53;;;30.80;97.90;;;;;;6181359;23;20550;-66
2021/08/11 09:49:18;;;;;;;3.60;3.30;;;30.90;97.90;;;;;;6180583;23;20475;-68
2021/08/11 09:51:54;;;;;;;4.60;4.13;;;31.00;98.10;;;;;;6152802;23;20924;-69
2021/08/11 09:54:21;;;;;;;3.80;3.50;;;30.90;98.80;;;;;;6179334;23;20912;-69
2021/08/11 09:56:46;;;;;;;3.90;3.60;;;30.90;98.90;;;;;;6180023;23;20391;-69
2021/08/11 09:59:12;;;;;;;3.47;3.17;;;31.00;99.10;;;;;;6179198;23;20456;-66
2021/08/11 10:01:38;;;;;;;6.80;3.93;;;30.90;98.90;;;;;;6154794;23;20188;-65
2021/08/11 10:04:06;;;;;;;3.60;3.30;;;31.00;98.80;;;;;;6131262;23;20169;-65
2021/08/11 10:06:33;;;;;;;3.43;3.13;;;31.00;98.80;;;;;;6180922;23;20443;-69
2021/08/11 10:09:15;;;;;;;3.73;3.33;;;31.00;97.70;;;;;;6154314;23;20629;-68
2021/08/11 10:11:44;;;;;;;4.23;3.77;;;31.10;96.90;;;;;;6179582;23;20442;-68
2021/08/11 10:14:12;;;;;;;4.27;3.67;;;31.20;98.00;;;;;;6184897;23;20391;-68
2021/08/11 10:16:41;;;;;;;4.17;3.70;;;31.10;97.40;;;;;;6181698;23;20797;-69
2021/08/11 10:19:08;;;;;;;3.83;3.53;;;31.20;96.70;;;;;;6158021;23;20410;-65
2021/08/11 10:22:01;;;;;;;4.53;3.77;;;31.30;96.60;;;;;;6156565;23;20404;-65
2021/08/11 10:24:28;;;;;;;4.27;3.37;;;31.30;97.10;;;;;;6178547;23;20393;-65
2021/08/11 10:26:54;;;;;;;3.87;3.57;;;31.40;97.40;;;;;;6182748;23;20406;-69
2021/08/11 10:29:21;;;;;;;3.90;3.50;;;31.40;97.30;;;;;;6183136;23;20383;-65
2021/08/11 10:31:47;;;;;;;3.93;3.63;;;31.30;97.40;;;;;;6183779;23;20449;-69
2021/08/11 10:34:16;;;;;;;3.00;2.80;;;31.40;97.20;;;;;;6183794;23;20379;-68
2021/08/11 10:36:44;;;;;;;5.07;3.80;;;31.30;97.10;;;;;;6184179;23;20829;-66
2021/08/11 10:39:10;;;;;;;3.77;3.47;;;31.40;97.20;;;;;;6157041;23;20397;-65
2021/08/11 10:41:37;;;;;;;5.20;3.30;;;31.40;96.40;;;;;;6183494;23;20413;-66
2021/08/11 10:44:07;;;;;;;4.57;3.77;;;31.50;95.90;;;;;;6184989;23;20648;-63
2021/08/11 10:46:36;;;;;;;3.77;3.47;;;31.60;95.30;;;;;;6185968;23;20904;-68
2021/08/11 10:49:03;;;;;;;4.53;3.73;;;31.70;95.10;;;;;;6185810;23;20411;-67
2021/08/11 10:51:40;;;;;;;4.20;3.80;;;31.70;94.50;;;;;;6185700;23;20498;-65
2021/08/11 10:54:07;;;;;;;7.27;4.00;;;31.80;95.00;;;;;;6185873;23;20405;-63
2021/08/11 10:56:43;;;;;;;3.40;3.10;;;31.90;94.20;;;;;;6183378;23;20400;-64
2021/08/11 10:59:24;;;;;;;3.50;3.20;;;31.90;94.10;;;;;;6158736;23;20459;-67
2021/08/11 11:01:59;;;;;;;4.80;4.00;;;32.00;94.50;;;;;;6184000;23;20388;-67
2021/08/11 11:04:50;;;;;;;3.60;3.30;;;32.00;94.70;;;;;;6185258;23;20411;-64
2021/08/11 11:07:18;;;;;;;3.60;3.30;;;32.10;94.20;;;;;;6183714;23;20535;-69
2021/08/11 11:09:45;;;;;;;3.53;3.10;;;32.20;94.30;;;;;;6183775;23;20388;-69
2021/08/11 11:12:16;;;;;;;4.00;3.67;;;32.10;93.50;;;;;;6182995;23;20396;-68
2021/08/11 11:14:53;;;;;;;3.93;3.53;;;32.10;93.40;;;;;;6157479;23;20567;-69
2021/08/11 11:17:22;;;;;;;3.97;3.67;;;32.20;93.10;;;;;;6184115;23;20462;-68
2021/08/11 11:20:03;;;;;;;3.40;3.10;;;32.20;92.40;;;;;;6157131;23;20781;-63
2021/08/11 11:22:37;;;;;;;7.20;4.10;;;32.30;92.70;;;;;;6181572;23;20385;-64
2021/08/11 11:25:05;;;;;;;7.00;3.87;;;32.20;92.60;;;;;;6179876;23;20388;-68
2021/08/11 11:27:52;;;;;;;3.73;3.30;;;32.20;92.30;;;;;;6155452;23;20802;-67
2021/08/11 11:30:44;;;;;;;5.70;3.90;;;32.20;92.60;;;;;;6155798;23;20446;-65
2021/08/11 11:33:18;;;;;;;4.37;3.83;;;32.10;92.40;;;;;;6176453;23;20431;-63
2021/08/11 11:35:44;;;;;;;4.90;4.30;;;32.10;93.10;;;;;;6182607;23;20898;-64
2021/08/11 11:38:14;;;;;;;3.80;3.50;;;32.10;93.60;;;;;;6183421;23;20436;-64
2021/08/11 11:40:55;;;;;;;6.70;3.77;;;32.10;93.40;;;;;;6156745;23;20727;-65
2021/08/11 11:43:23;;;;;;;4.03;3.63;;;32.10;93.30;;;;;;6157223;23;20737;-69
2021/08/11 11:45:49;;;;;;;5.73;2.90;;;32.10;93.80;;;;;;6183468;23;20415;-65
2021/08/11 11:48:16;;;;;;;4.33;3.93;;;32.10;94.00;;;;;;6156149;23;20415;-68
2021/08/11 11:50:43;;;;;;;4.00;3.63;;;32.10;94.30;;;;;;6182709;23;20424;-65
2021/08/11 11:53:20;;;;;;;4.20;3.33;;;31.90;94.50;;;;;;6180889;23;20910;-68
2021/08/11 11:55:46;;;;;;;3.90;3.60;;;31.80;94.70;;;;;;6183409;23;20365;-68
2021/08/11 11:58:13;;;;;;;7.10;3.77;;;31.70;94.80;;;;;;6182995;23;20714;-68
2021/08/11 12:00:39;;;;;;;5.13;4.67;;;31.60;95.00;;;;;;6155534;23;20394;-64
2021/08/11 12:03:05;;;;;;;3.50;3.20;;;31.50;95.20;;;;;;6183152;23;20491;-70
2021/08/11 12:05:51;;;;;;;4.47;3.80;;;31.40;94.90;;;;;;6182772;23;20405;-68
2021/08/11 12:08:21;;;;;;;4.43;3.57;;;31.60;94.60;;;;;;6182087;23;20323;-68
2021/08/11 12:10:52;;;;;;;3.90;3.53;;;31.60;94.70;;;;;;6180966;23;20534;-70
2021/08/11 12:13:18;;;;;;;4.70;3.60;;;31.70;95.20;;;;;;6181300;23;20503;-68
2021/08/11 12:15:51;;;;;;;6.63;3.90;;;31.70;94.90;;;;;;6181461;23;20379;-71
2021/08/11 12:18:18;;;;;;;4.60;4.20;;;31.80;94.80;;;;;;6153305;23;20420;-70
2021/08/11 12:20:45;;;;;;;4.70;4.20;;;31.90;94.80;;;;;;6181938;23;20859;-63
2021/08/11 12:23:16;;;;;;;6.70;4.07;;;32.00;94.70;;;;;;6182156;23;20422;-61
2021/08/11 12:25:42;;;;;;;5.10;4.00;;;32.00;94.60;;;;;;6183333;23;20377;-62
2021/08/11 12:28:12;;;;;;;5.07;4.07;;;32.10;94.60;;;;;;6183197;23;20462;-72
2021/08/11 12:30:41;;;;;;;4.87;4.43;;;32.10;94.60;;;;;;6183067;23;20222;-71
2021/08/11 12:33:08;;;;;;;3.50;3.20;;;32.10;94.50;;;;;;6181710;23;20404;-64
2021/08/11 12:35:40;;;;;;;5.07;3.70;;;32.10;94.60;;;;;;6181572;23;20416;-65
2021/08/11 12:38:05;;;;;;;3.83;3.23;;;32.00;94.70;;;;;;6182642;23;20436;-65
2021/08/11 12:40:33;;;;;;;4.30;3.90;;;32.00;94.70;;;;;;6183024;23;20368;-69
2021/08/11 12:43:01;;;;;;;5.80;3.77;;;32.00;94.60;;;;;;6181110;23;20182;-71
2021/08/11 12:45:43;;;;;;;4.00;3.70;;;31.90;94.50;;;;;;6184754;23;20464;-64
2021/08/11 12:48:29;;;;;;;4.80;4.30;;;31.90;94.30;;;;;;6183572;23;20418;-64
2021/08/11 12:50:58;;;;;;;6.95;5.40;;;31.90;93.40;;;;;;6182255;23;20400;-64